sensor_id;sensor_type;location;lat;lon;timestamp;temperature;humidity
33269;DHT22;19640;50.944;5.260;2023-06-22T00:01:23;21.00;99.90
33269;DHT22;19640;50.944;5.260;2023-06-22T00:03:48;20.90;99.90
33269;DHT22;19640;50.944;5.260;2023-06-22T00:06:14;21.00;99.90
33269;DHT22;19640;50.944;5.260;2023-06-22T00:08:40;21.00;99.90
33269;DHT22;19640;50.944;5.260;2023-06-22T00:11:06;20.80;99.90
33269;DHT22;19640;50.944;5.260;2023-06-22T00:13:32;20.60;99.90
33269;DHT22;19640;50.944;5.260;2023-06-22T00:15:57;20.70;99.90
33269;DHT22;19640;50.944;5.260;2023-06-22T00:18:23;20.80;99.90
33269;DHT22;19640;50.944;5.260;2023-06-22T00:20:56;20.90;99.90
33269;DHT22;19640;50.944;5.260;2023-06-22T00:23:25;20.90;99.90
33269;DHT22;19640;50.944;5.260;2023-06-22T00:25:51;20.90;99.90
33269;DHT22;19640;50.944;5.260;2023-06-22T00:28:17;20.80;99.90
33269;DHT22;19640;50.944;5.260;2023-06-22T00:30:42;20.90;99.90
33269;DHT22;19640;50.944;5.260;2023-06-22T00:33:08;21.00;99.90
33269;DHT22;19640;50.944;5.260;2023-06-22T00:35:34;21.20;99.90
33269;DHT22;19640;50.944;5.260;2023-06-22T00:38:00;21.20;99.90
33269;DHT22;19640;50.944;5.260;2023-06-22T00:40:31;21.10;99.90
33269;DHT22;19640;50.944;5.260;2023-06-22T00:42:57;21.10;99.90
33269;DHT22;19640;50.944;5.260;2023-06-22T00:45:23;21.20;99.90
33269;DHT22;19640;50.944;5.260;2023-06-22T00:47:53;21.10;99.90
33269;DHT22;19640;50.944;5.260;2023-06-22T00:50:21;21.10;99.90
33269;DHT22;19640;50.944;5.260;2023-06-22T00:52:52;21.10;99.90
33269;DHT22;19640;50.944;5.260;2023-06-22T00:55:19;21.10;99.90
33269;DHT22;19640;50.944;5.260;2023-06-22T00:57:46;21.20;99.90
33269;DHT22;19640;50.944;5.260;2023-06-22T01:00:14;21.20;99.90
33269;DHT22;19640;50.944;5.260;2023-06-22T01:02:42;21.20;99.90
33269;DHT22;19640;50.944;5.260;2023-06-22T01:05:14;21.20;99.90
33269;DHT22;19640;50.944;5.260;2023-06-22T01:13:01;21.00;99.90
33269;DHT22;19640;50.944;5.260;2023-06-22T01:15:37;21.10;99.90
33269;DHT22;19640;50.944;5.260;2023-06-22T01:18:05;21.10;99.90
33269;DHT22;19640;50.944;5.260;2023-06-22T01:20:34;20.90;99.90
33269;DHT22;19640;50.944;5.260;2023-06-22T01:23:26;20.70;99.90
33269;DHT22;19640;50.944;5.260;2023-06-22T01:31:10;20.90;99.90
33269;DHT22;19640;50.944;5.260;2023-06-22T01:33:41;21.00;99.90
33269;DHT22;19640;50.944;5.260;2023-06-22T01:36:07;21.00;99.90
33269;DHT22;19640;50.944;5.260;2023-06-22T01:38:34;20.90;99.90
33269;DHT22;19640;50.944;5.260;2023-06-22T01:41:01;21.00;99.90
33269;DHT22;19640;50.944;5.260;2023-06-22T01:43:28;21.00;99.90
33269;DHT22;19640;50.944;5.260;2023-06-22T01:45:55;21.10;99.90
33269;DHT22;19640;50.944;5.260;2023-06-22T01:48:21;21.20;99.90
33269;DHT22;19640;50.944;5.260;2023-06-22T01:50:48;20.90;99.90
33269;DHT22;19640;50.944;5.260;2023-06-22T01:53:13;21.10;99.90
33269;DHT22;19640;50.944;5.260;2023-06-22T01:55:39;21.30;99.90
33269;DHT22;19640;50.944;5.260;2023-06-22T01:58:05;21.50;99.90
33269;DHT22;19640;50.944;5.260;2023-06-22T02:00:34;21.50;99.90
33269;DHT22;19640;50.944;5.260;2023-06-22T02:03:05;21.60;99.90
33269;DHT22;19640;50.944;5.260;2023-06-22T02:05:55;21.50;99.90
33269;DHT22;19640;50.944;5.260;2023-06-22T02:08:28;21.50;99.90
33269;DHT22;19640;50.944;5.260;2023-06-22T02:10:55;21.50;99.90
33269;DHT22;19640;50.944;5.260;2023-06-22T02:13:24;21.50;99.90
33269;DHT22;19640;50.944;5.260;2023-06-22T02:15:50;21.30;99.90
33269;DHT22;19640;50.944;5.260;2023-06-22T02:18:16;21.40;99.90
33269;DHT22;19640;50.944;5.260;2023-06-22T02:20:42;21.40;99.90
33269;DHT22;19640;50.944;5.260;2023-06-22T02:23:08;21.30;99.90
33269;DHT22;19640;50.944;5.260;2023-06-22T02:25:34;20.90;99.90
33269;DHT22;19640;50.944;5.260;2023-06-22T02:28:01;20.80;99.90
33269;DHT22;19640;50.944;5.260;2023-06-22T02:30:26;20.80;99.90
33269;DHT22;19640;50.944;5.260;2023-06-22T02:32:52;20.70;99.90
33269;DHT22;19640;50.944;5.260;2023-06-22T02:35:25;20.60;99.90
33269;DHT22;19640;50.944;5.260;2023-06-22T02:37:50;20.50;99.90
33269;DHT22;19640;50.944;5.260;2023-06-22T02:40:17;20.60;99.90
33269;DHT22;19640;50.944;5.260;2023-06-22T02:42:43;20.60;99.90
33269;DHT22;19640;50.944;5.260;2023-06-22T02:45:09;20.60;99.90
33269;DHT22;19640;50.944;5.260;2023-06-22T02:47:34;20.50;99.90
33269;DHT22;19640;50.944;5.260;2023-06-22T02:50:00;20.50;99.90
33269;DHT22;19640;50.944;5.260;2023-06-22T02:52:26;20.20;99.90
33269;DHT22;19640;50.944;5.260;2023-06-22T02:54:52;20.10;99.90
33269;DHT22;19640;50.944;5.260;2023-06-22T02:57:18;20.00;99.90
33269;DHT22;19640;50.944;5.260;2023-06-22T02:59:43;20.00;99.90
33269;DHT22;19640;50.944;5.260;2023-06-22T03:02:09;20.10;99.90
33269;DHT22;19640;50.944;5.260;2023-06-22T03:04:38;20.20;99.90
33269;DHT22;19640;50.944;5.260;2023-06-22T03:07:03;20.20;99.90
33269;DHT22;19640;50.944;5.260;2023-06-22T03:09:29;20.10;99.90
33269;DHT22;19640;50.944;5.260;2023-06-22T03:11:55;20.20;99.90
33269;DHT22;19640;50.944;5.260;2023-06-22T03:14:20;20.00;99.90
33269;DHT22;19640;50.944;5.260;2023-06-22T03:16:46;19.90;99.90
33269;DHT22;19640;50.944;5.260;2023-06-22T03:19:12;20.10;99.90
33269;DHT22;19640;50.944;5.260;2023-06-22T03:21:38;20.00;99.90
33269;DHT22;19640;50.944;5.260;2023-06-22T03:24:05;20.10;99.90
33269;DHT22;19640;50.944;5.260;2023-06-22T03:26:30;20.10;99.90
33269;DHT22;19640;50.944;5.260;2023-06-22T03:28:56;20.10;99.90
33269;DHT22;19640;50.944;5.260;2023-06-22T03:31:22;20.10;99.90
33269;DHT22;19640;50.944;5.260;2023-06-22T03:33:49;20.10;99.90
33269;DHT22;19640;50.944;5.260;2023-06-22T03:36:16;20.10;99.90
33269;DHT22;19640;50.944;5.260;2023-06-22T03:38:45;20.10;99.90
33269;DHT22;19640;50.944;5.260;2023-06-22T03:41:11;20.10;99.90
33269;DHT22;19640;50.944;5.260;2023-06-22T03:43:37;20.10;99.90
33269;DHT22;19640;50.944;5.260;2023-06-22T03:46:02;20.10;99.90
33269;DHT22;19640;50.944;5.260;2023-06-22T03:48:28;20.20;99.90
33269;DHT22;19640;50.944;5.260;2023-06-22T03:50:54;20.20;99.90
33269;DHT22;19640;50.944;5.260;2023-06-22T03:53:19;20.30;99.90
33269;DHT22;19640;50.944;5.260;2023-06-22T03:55:49;20.20;99.90
33269;DHT22;19640;50.944;5.260;2023-06-22T03:58:16;20.10;99.90
33269;DHT22;19640;50.944;5.260;2023-06-22T04:00:41;19.90;99.90
33269;DHT22;19640;50.944;5.260;2023-06-22T04:03:07;19.70;99.90
33269;DHT22;19640;50.944;5.260;2023-06-22T04:05:33;19.70;99.90
33269;DHT22;19640;50.944;5.260;2023-06-22T04:07:59;19.90;99.90
33269;DHT22;19640;50.944;5.260;2023-06-22T04:10:24;20.00;99.90
33269;DHT22;19640;50.944;5.260;2023-06-22T04:12:50;20.20;99.90
33269;DHT22;19640;50.944;5.260;2023-06-22T04:15:15;20.30;99.90
33269;DHT22;19640;50.944;5.260;2023-06-22T04:17:41;20.20;99.90
33269;DHT22;19640;50.944;5.260;2023-06-22T04:20:07;20.20;99.90
33269;DHT22;19640;50.944;5.260;2023-06-22T04:22:33;20.20;99.90
33269;DHT22;19640;50.944;5.260;2023-06-22T04:24:59;20.10;99.90
33269;DHT22;19640;50.944;5.260;2023-06-22T04:27:24;20.10;99.90
33269;DHT22;19640;50.944;5.260;2023-06-22T04:29:50;20.20;99.90
33269;DHT22;19640;50.944;5.260;2023-06-22T04:32:16;20.30;99.90
33269;DHT22;19640;50.944;5.260;2023-06-22T04:34:43;20.50;99.90
33269;DHT22;19640;50.944;5.260;2023-06-22T04:37:09;20.50;99.90
33269;DHT22;19640;50.944;5.260;2023-06-22T04:39:34;20.50;99.90
33269;DHT22;19640;50.944;5.260;2023-06-22T04:42:01;20.50;99.90
33269;DHT22;19640;50.944;5.260;2023-06-22T04:44:27;20.60;99.90
33269;DHT22;19640;50.944;5.260;2023-06-22T04:47:01;20.60;99.90
33269;DHT22;19640;50.944;5.260;2023-06-22T04:49:29;20.50;99.90
33269;DHT22;19640;50.944;5.260;2023-06-22T04:52:02;20.40;99.90
33269;DHT22;19640;50.944;5.260;2023-06-22T04:54:28;20.40;99.90
33269;DHT22;19640;50.944;5.260;2023-06-22T04:56:54;20.60;99.90
33269;DHT22;19640;50.944;5.260;2023-06-22T04:59:27;20.60;99.90
33269;DHT22;19640;50.944;5.260;2023-06-22T05:02:00;20.40;99.90
33269;DHT22;19640;50.944;5.260;2023-06-22T05:04:27;20.30;99.90
33269;DHT22;19640;50.944;5.260;2023-06-22T05:06:54;20.20;99.90
33269;DHT22;19640;50.944;5.260;2023-06-22T05:09:21;20.30;99.90
33269;DHT22;19640;50.944;5.260;2023-06-22T05:11:47;20.30;99.90
33269;DHT22;19640;50.944;5.260;2023-06-22T05:14:12;20.20;99.90
33269;DHT22;19640;50.944;5.260;2023-06-22T05:16:40;20.30;99.90
33269;DHT22;19640;50.944;5.260;2023-06-22T05:19:06;20.20;99.90
33269;DHT22;19640;50.944;5.260;2023-06-22T05:21:32;20.40;99.90
33269;DHT22;19640;50.944;5.260;2023-06-22T05:23:58;20.50;99.90
33269;DHT22;19640;50.944;5.260;2023-06-22T05:26:28;20.60;99.90
33269;DHT22;19640;50.944;5.260;2023-06-22T05:28:54;20.60;99.90
33269;DHT22;19640;50.944;5.260;2023-06-22T05:31:20;20.60;99.90
33269;DHT22;19640;50.944;5.260;2023-06-22T05:33:47;20.80;99.90
33269;DHT22;19640;50.944;5.260;2023-06-22T05:36:13;20.70;99.90
33269;DHT22;19640;50.944;5.260;2023-06-22T05:38:39;20.80;99.90
33269;DHT22;19640;50.944;5.260;2023-06-22T05:41:05;20.90;99.90
33269;DHT22;19640;50.944;5.260;2023-06-22T05:43:32;20.90;99.90
33269;DHT22;19640;50.944;5.260;2023-06-22T05:45:59;20.70;99.90
33269;DHT22;19640;50.944;5.260;2023-06-22T05:48:25;20.60;99.90
33269;DHT22;19640;50.944;5.260;2023-06-22T05:50:50;20.70;99.90
33269;DHT22;19640;50.944;5.260;2023-06-22T05:53:16;20.80;99.90
33269;DHT22;19640;50.944;5.260;2023-06-22T05:55:42;20.80;99.90
33269;DHT22;19640;50.944;5.260;2023-06-22T05:58:08;20.90;99.90
33269;DHT22;19640;50.944;5.260;2023-06-22T06:00:34;20.90;99.90
33269;DHT22;19640;50.944;5.260;2023-06-22T06:03:00;20.90;99.90
33269;DHT22;19640;50.944;5.260;2023-06-22T06:05:32;20.90;99.90
33269;DHT22;19640;50.944;5.260;2023-06-22T06:08:00;20.90;99.90
33269;DHT22;19640;50.944;5.260;2023-06-22T06:10:25;20.90;99.90
33269;DHT22;19640;50.944;5.260;2023-06-22T06:12:52;20.90;99.90
33269;DHT22;19640;50.944;5.260;2023-06-22T06:15:18;20.80;99.90
33269;DHT22;19640;50.944;5.260;2023-06-22T06:17:51;20.90;99.90
33269;DHT22;19640;50.944;5.260;2023-06-22T06:20:22;20.80;99.90
33269;DHT22;19640;50.944;5.260;2023-06-22T06:22:48;20.90;99.90
33269;DHT22;19640;50.944;5.260;2023-06-22T06:25:14;20.90;99.90
33269;DHT22;19640;50.944;5.260;2023-06-22T06:27:49;20.90;99.90
33269;DHT22;19640;50.944;5.260;2023-06-22T06:30:16;20.90;99.90
33269;DHT22;19640;50.944;5.260;2023-06-22T06:32:43;21.00;99.90
33269;DHT22;19640;50.944;5.260;2023-06-22T06:35:11;21.10;99.90
33269;DHT22;19640;50.944;5.260;2023-06-22T06:37:39;21.20;99.90
33269;DHT22;19640;50.944;5.260;2023-06-22T06:40:06;21.40;99.90
33269;DHT22;19640;50.944;5.260;2023-06-22T06:42:40;21.10;99.90
33269;DHT22;19640;50.944;5.260;2023-06-22T06:45:16;20.80;99.90
33269;DHT22;19640;50.944;5.260;2023-06-22T06:47:42;20.90;99.90
33269;DHT22;19640;50.944;5.260;2023-06-22T06:50:08;20.90;99.90
33269;DHT22;19640;50.944;5.260;2023-06-22T06:52:34;21.00;99.90
33269;DHT22;19640;50.944;5.260;2023-06-22T06:55:00;21.00;99.90
33269;DHT22;19640;50.944;5.260;2023-06-22T06:57:26;21.00;99.90
33269;DHT22;19640;50.944;5.260;2023-06-22T06:59:56;21.00;99.90
33269;DHT22;19640;50.944;5.260;2023-06-22T07:02:22;21.00;99.90
33269;DHT22;19640;50.944;5.260;2023-06-22T07:04:48;21.00;99.90
33269;DHT22;19640;50.944;5.260;2023-06-22T07:07:14;21.10;99.90
33269;DHT22;19640;50.944;5.260;2023-06-22T07:09:40;21.10;99.90
33269;DHT22;19640;50.944;5.260;2023-06-22T07:12:06;21.10;99.90
33269;DHT22;19640;50.944;5.260;2023-06-22T07:14:32;21.10;99.90
33269;DHT22;19640;50.944;5.260;2023-06-22T07:16:58;21.00;99.90
33269;DHT22;19640;50.944;5.260;2023-06-22T07:19:25;21.00;99.90
33269;DHT22;19640;50.944;5.260;2023-06-22T07:21:52;21.20;99.90
33269;DHT22;19640;50.944;5.260;2023-06-22T07:24:19;21.40;99.90
33269;DHT22;19640;50.944;5.260;2023-06-22T07:26:49;21.50;99.90
33269;DHT22;19640;50.944;5.260;2023-06-22T07:29:19;21.60;99.90
33269;DHT22;19640;50.944;5.260;2023-06-22T07:31:46;21.50;99.90
33269;DHT22;19640;50.944;5.260;2023-06-22T07:34:13;21.70;99.90
33269;DHT22;19640;50.944;5.260;2023-06-22T07:36:38;21.70;99.90
33269;DHT22;19640;50.944;5.260;2023-06-22T07:39:05;21.70;99.90
33269;DHT22;19640;50.944;5.260;2023-06-22T07:41:31;21.60;99.90
33269;DHT22;19640;50.944;5.260;2023-06-22T07:43:56;21.60;99.90
33269;DHT22;19640;50.944;5.260;2023-06-22T07:46:23;21.60;99.90
33269;DHT22;19640;50.944;5.260;2023-06-22T07:48:48;21.50;99.90
33269;DHT22;19640;50.944;5.260;2023-06-22T07:51:14;21.50;99.90
33269;DHT22;19640;50.944;5.260;2023-06-22T07:53:41;21.40;99.90
33269;DHT22;19640;50.944;5.260;2023-06-22T07:56:07;21.30;99.90
33269;DHT22;19640;50.944;5.260;2023-06-22T07:58:33;21.50;99.90
33269;DHT22;19640;50.944;5.260;2023-06-22T08:00:59;21.50;99.90
33269;DHT22;19640;50.944;5.260;2023-06-22T08:03:24;21.50;99.90
33269;DHT22;19640;50.944;5.260;2023-06-22T08:05:50;21.70;99.90
33269;DHT22;19640;50.944;5.260;2023-06-22T08:08:16;21.80;99.90
33269;DHT22;19640;50.944;5.260;2023-06-22T08:10:42;21.50;99.90
33269;DHT22;19640;50.944;5.260;2023-06-22T08:13:08;21.40;99.90
33269;DHT22;19640;50.944;5.260;2023-06-22T08:15:34;21.30;99.90
33269;DHT22;19640;50.944;5.260;2023-06-22T08:17:59;21.30;99.90
33269;DHT22;19640;50.944;5.260;2023-06-22T08:20:26;21.30;99.90
33269;DHT22;19640;50.944;5.260;2023-06-22T08:22:53;21.50;99.90
33269;DHT22;19640;50.944;5.260;2023-06-22T08:25:20;21.70;99.90
33269;DHT22;19640;50.944;5.260;2023-06-22T08:27:46;21.90;99.90
33269;DHT22;19640;50.944;5.260;2023-06-22T08:30:14;22.20;99.90
33269;DHT22;19640;50.944;5.260;2023-06-22T08:32:40;22.10;99.90
33269;DHT22;19640;50.944;5.260;2023-06-22T08:35:06;22.10;99.90
33269;DHT22;19640;50.944;5.260;2023-06-22T08:37:33;22.20;99.90
33269;DHT22;19640;50.944;5.260;2023-06-22T08:40:02;22.20;99.90
33269;DHT22;19640;50.944;5.260;2023-06-22T08:42:33;22.10;99.90
33269;DHT22;19640;50.944;5.260;2023-06-22T08:44:59;22.30;99.90
33269;DHT22;19640;50.944;5.260;2023-06-22T08:47:24;22.50;99.90
33269;DHT22;19640;50.944;5.260;2023-06-22T08:49:50;22.70;99.90
33269;DHT22;19640;50.944;5.260;2023-06-22T08:52:17;22.50;99.90
33269;DHT22;19640;50.944;5.260;2023-06-22T08:54:43;22.50;99.90
33269;DHT22;19640;50.944;5.260;2023-06-22T08:57:08;22.50;99.90
33269;DHT22;19640;50.944;5.260;2023-06-22T08:59:34;22.60;99.90
33269;DHT22;19640;50.944;5.260;2023-06-22T09:02:00;22.60;99.90
33269;DHT22;19640;50.944;5.260;2023-06-22T09:04:25;22.60;99.90
33269;DHT22;19640;50.944;5.260;2023-06-22T09:06:51;22.80;99.90
33269;DHT22;19640;50.944;5.260;2023-06-22T09:09:18;22.70;99.90
33269;DHT22;19640;50.944;5.260;2023-06-22T09:11:44;22.60;99.90
33269;DHT22;19640;50.944;5.260;2023-06-22T09:14:10;22.50;99.90
33269;DHT22;19640;50.944;5.260;2023-06-22T09:16:36;22.50;99.90
33269;DHT22;19640;50.944;5.260;2023-06-22T09:19:02;22.60;99.90
33269;DHT22;19640;50.944;5.260;2023-06-22T09:21:28;22.50;99.90
33269;DHT22;19640;50.944;5.260;2023-06-22T09:23:54;22.60;99.90
33269;DHT22;19640;50.944;5.260;2023-06-22T09:26:21;22.40;99.90
33269;DHT22;19640;50.944;5.260;2023-06-22T09:28:48;22.40;99.90
33269;DHT22;19640;50.944;5.260;2023-06-22T09:31:13;22.60;99.90
33269;DHT22;19640;50.944;5.260;2023-06-22T09:33:40;22.90;99.90
33269;DHT22;19640;50.944;5.260;2023-06-22T09:36:06;22.90;99.90
33269;DHT22;19640;50.944;5.260;2023-06-22T09:38:38;22.70;99.90
33269;DHT22;19640;50.944;5.260;2023-06-22T09:41:04;22.70;99.90
33269;DHT22;19640;50.944;5.260;2023-06-22T09:43:31;22.60;99.90
33269;DHT22;19640;50.944;5.260;2023-06-22T09:45:57;22.90;99.90
33269;DHT22;19640;50.944;5.260;2023-06-22T09:48:23;23.10;99.90
33269;DHT22;19640;50.944;5.260;2023-06-22T09:50:49;23.10;99.90
33269;DHT22;19640;50.944;5.260;2023-06-22T09:53:15;23.50;99.90
33269;DHT22;19640;50.944;5.260;2023-06-22T09:55:40;23.80;99.90
33269;DHT22;19640;50.944;5.260;2023-06-22T09:58:06;23.80;99.90
33269;DHT22;19640;50.944;5.260;2023-06-22T10:00:32;23.80;99.90
33269;DHT22;19640;50.944;5.260;2023-06-22T10:02:57;23.90;99.90
33269;DHT22;19640;50.944;5.260;2023-06-22T10:05:23;24.00;99.90
33269;DHT22;19640;50.944;5.260;2023-06-22T10:07:50;23.90;99.90
33269;DHT22;19640;50.944;5.260;2023-06-22T10:10:16;24.10;99.90
33269;DHT22;19640;50.944;5.260;2023-06-22T10:12:44;24.00;99.90
33269;DHT22;19640;50.944;5.260;2023-06-22T10:15:10;24.10;99.90
33269;DHT22;19640;50.944;5.260;2023-06-22T10:17:37;24.00;99.90
33269;DHT22;19640;50.944;5.260;2023-06-22T10:20:03;23.60;99.90
33269;DHT22;19640;50.944;5.260;2023-06-22T10:22:44;23.50;99.90
33269;DHT22;19640;50.944;5.260;2023-06-22T10:25:11;23.60;99.90
33269;DHT22;19640;50.944;5.260;2023-06-22T10:27:37;23.60;99.90
33269;DHT22;19640;50.944;5.260;2023-06-22T10:30:06;23.10;99.90
33269;DHT22;19640;50.944;5.260;2023-06-22T10:32:32;22.90;99.90
33269;DHT22;19640;50.944;5.260;2023-06-22T10:34:58;22.80;99.90
33269;DHT22;19640;50.944;5.260;2023-06-22T10:37:24;22.90;99.90
33269;DHT22;19640;50.944;5.260;2023-06-22T10:39:50;22.80;99.90
33269;DHT22;19640;50.944;5.260;2023-06-22T10:42:15;22.60;99.90
33269;DHT22;19640;50.944;5.260;2023-06-22T10:44:41;22.60;99.90
33269;DHT22;19640;50.944;5.260;2023-06-22T10:47:09;22.50;99.90
33269;DHT22;19640;50.944;5.260;2023-06-22T10:49:37;22.50;99.90
33269;DHT22;19640;50.944;5.260;2023-06-22T10:52:03;22.40;99.90
33269;DHT22;19640;50.944;5.260;2023-06-22T10:54:29;22.40;99.90
33269;DHT22;19640;50.944;5.260;2023-06-22T10:56:55;22.30;99.90
33269;DHT22;19640;50.944;5.260;2023-06-22T10:59:20;22.40;99.90
33269;DHT22;19640;50.944;5.260;2023-06-22T11:01:49;22.30;99.90
33269;DHT22;19640;50.944;5.260;2023-06-22T11:04:14;22.30;99.90
33269;DHT22;19640;50.944;5.260;2023-06-22T11:06:40;22.30;99.90
33269;DHT22;19640;50.944;5.260;2023-06-22T11:09:05;22.30;99.90
33269;DHT22;19640;50.944;5.260;2023-06-22T11:11:31;22.20;99.90
33269;DHT22;19640;50.944;5.260;2023-06-22T11:13:57;22.00;99.90
33269;DHT22;19640;50.944;5.260;2023-06-22T11:16:22;21.90;99.90
33269;DHT22;19640;50.944;5.260;2023-06-22T11:18:48;21.90;99.90
33269;DHT22;19640;50.944;5.260;2023-06-22T11:21:14;21.80;99.90
33269;DHT22;19640;50.944;5.260;2023-06-22T11:23:39;21.70;99.90
33269;DHT22;19640;50.944;5.260;2023-06-22T11:26:05;21.50;99.90
33269;DHT22;19640;50.944;5.260;2023-06-22T11:28:33;21.50;99.90
33269;DHT22;19640;50.944;5.260;2023-06-22T11:30:58;21.60;99.90
33269;DHT22;19640;50.944;5.260;2023-06-22T11:33:24;21.90;99.90
33269;DHT22;19640;50.944;5.260;2023-06-22T11:35:50;22.10;99.90
33269;DHT22;19640;50.944;5.260;2023-06-22T11:38:15;22.40;99.90
33269;DHT22;19640;50.944;5.260;2023-06-22T11:40:41;22.40;99.90
33269;DHT22;19640;50.944;5.260;2023-06-22T11:43:06;22.30;99.90
33269;DHT22;19640;50.944;5.260;2023-06-22T11:45:32;22.30;99.90
33269;DHT22;19640;50.944;5.260;2023-06-22T11:47:58;22.40;99.90
33269;DHT22;19640;50.944;5.260;2023-06-22T11:50:23;21.90;99.90
33269;DHT22;19640;50.944;5.260;2023-06-22T11:52:49;21.70;99.90
33269;DHT22;19640;50.944;5.260;2023-06-22T11:55:15;21.60;99.90
33269;DHT22;19640;50.944;5.260;2023-06-22T11:57:54;21.60;99.90
33269;DHT22;19640;50.944;5.260;2023-06-22T12:00:21;21.30;99.90
33269;DHT22;19640;50.944;5.260;2023-06-22T12:02:52;21.10;99.90
33269;DHT22;19640;50.944;5.260;2023-06-22T12:05:20;21.10;99.90
33269;DHT22;19640;50.944;5.260;2023-06-22T12:07:49;21.00;99.90
33269;DHT22;19640;50.944;5.260;2023-06-22T12:10:15;21.10;99.90
33269;DHT22;19640;50.944;5.260;2023-06-22T12:12:41;21.00;99.90
33269;DHT22;19640;50.944;5.260;2023-06-22T12:15:09;20.90;99.90
33269;DHT22;19640;50.944;5.260;2023-06-22T12:17:34;20.90;99.90
33269;DHT22;19640;50.944;5.260;2023-06-22T12:20:00;20.90;99.90
33269;DHT22;19640;50.944;5.260;2023-06-22T12:22:27;20.90;99.90
33269;DHT22;19640;50.944;5.260;2023-06-22T12:24:52;21.00;99.90
33269;DHT22;19640;50.944;5.260;2023-06-22T12:27:18;20.90;99.90
33269;DHT22;19640;50.944;5.260;2023-06-22T12:29:47;20.70;99.90
33269;DHT22;19640;50.944;5.260;2023-06-22T12:32:13;20.70;99.90
33269;DHT22;19640;50.944;5.260;2023-06-22T12:34:43;20.80;99.90
33269;DHT22;19640;50.944;5.260;2023-06-22T12:37:09;20.70;99.90
33269;DHT22;19640;50.944;5.260;2023-06-22T12:39:35;20.50;99.90
33269;DHT22;19640;50.944;5.260;2023-06-22T12:42:00;20.40;99.90
33269;DHT22;19640;50.944;5.260;2023-06-22T12:44:26;20.50;99.90
33269;DHT22;19640;50.944;5.260;2023-06-22T12:46:52;20.50;99.90
33269;DHT22;19640;50.944;5.260;2023-06-22T12:49:17;20.40;99.90
33269;DHT22;19640;50.944;5.260;2023-06-22T12:51:44;20.30;99.90
33269;DHT22;19640;50.944;5.260;2023-06-22T12:54:10;20.30;99.90
33269;DHT22;19640;50.944;5.260;2023-06-22T12:56:37;20.40;99.90
33269;DHT22;19640;50.944;5.260;2023-06-22T12:59:04;20.30;99.90
33269;DHT22;19640;50.944;5.260;2023-06-22T13:01:30;20.30;99.90
33269;DHT22;19640;50.944;5.260;2023-06-22T13:03:57;20.40;99.90
33269;DHT22;19640;50.944;5.260;2023-06-22T13:06:23;20.20;99.90
33269;DHT22;19640;50.944;5.260;2023-06-22T13:08:49;20.20;99.90
33269;DHT22;19640;50.944;5.260;2023-06-22T13:11:14;20.20;99.90
33269;DHT22;19640;50.944;5.260;2023-06-22T13:13:40;20.20;99.90
33269;DHT22;19640;50.944;5.260;2023-06-22T13:16:07;20.20;99.90
33269;DHT22;19640;50.944;5.260;2023-06-22T13:18:33;20.20;99.90
33269;DHT22;19640;50.944;5.260;2023-06-22T13:21:01;20.20;99.90
33269;DHT22;19640;50.944;5.260;2023-06-22T13:23:27;20.10;99.90
33269;DHT22;19640;50.944;5.260;2023-06-22T13:25:53;20.10;99.90
33269;DHT22;19640;50.944;5.260;2023-06-22T13:28:18;20.00;99.90
33269;DHT22;19640;50.944;5.260;2023-06-22T13:30:46;20.00;99.90
33269;DHT22;19640;50.944;5.260;2023-06-22T13:33:13;20.10;99.90
33269;DHT22;19640;50.944;5.260;2023-06-22T13:35:39;20.10;99.90
33269;DHT22;19640;50.944;5.260;2023-06-22T13:38:05;20.00;99.90
33269;DHT22;19640;50.944;5.260;2023-06-22T13:40:31;20.10;99.90
33269;DHT22;19640;50.944;5.260;2023-06-22T13:42:56;20.10;99.90
33269;DHT22;19640;50.944;5.260;2023-06-22T13:45:22;20.00;99.90
33269;DHT22;19640;50.944;5.260;2023-06-22T13:47:48;19.90;99.90
33269;DHT22;19640;50.944;5.260;2023-06-22T13:50:14;19.70;99.90
33269;DHT22;19640;50.944;5.260;2023-06-22T13:52:39;19.50;99.90
33269;DHT22;19640;50.944;5.260;2023-06-22T13:55:05;19.50;99.90
33269;DHT22;19640;50.944;5.260;2023-06-22T13:57:33;19.40;99.90
33269;DHT22;19640;50.944;5.260;2023-06-22T13:59:59;19.50;99.90
33269;DHT22;19640;50.944;5.260;2023-06-22T14:02:26;19.60;99.90
33269;DHT22;19640;50.944;5.260;2023-06-22T14:04:51;19.70;99.90
33269;DHT22;19640;50.944;5.260;2023-06-22T14:07:17;19.50;99.90
33269;DHT22;19640;50.944;5.260;2023-06-22T14:09:44;19.50;99.90
33269;DHT22;19640;50.944;5.260;2023-06-22T14:12:11;19.40;99.90
33269;DHT22;19640;50.944;5.260;2023-06-22T14:14:36;19.30;99.90
33269;DHT22;19640;50.944;5.260;2023-06-22T14:17:03;19.40;99.90
33269;DHT22;19640;50.944;5.260;2023-06-22T14:19:29;19.40;99.90
33269;DHT22;19640;50.944;5.260;2023-06-22T14:21:55;19.40;99.90
33269;DHT22;19640;50.944;5.260;2023-06-22T14:24:22;19.30;99.90
33269;DHT22;19640;50.944;5.260;2023-06-22T14:26:48;19.20;99.90
33269;DHT22;19640;50.944;5.260;2023-06-22T14:29:13;19.10;99.90
33269;DHT22;19640;50.944;5.260;2023-06-22T14:31:39;19.10;99.90
33269;DHT22;19640;50.944;5.260;2023-06-22T14:34:05;19.10;99.90
33269;DHT22;19640;50.944;5.260;2023-06-22T14:36:31;19.10;99.90
33269;DHT22;19640;50.944;5.260;2023-06-22T14:38:57;19.00;99.90
33269;DHT22;19640;50.944;5.260;2023-06-22T14:41:23;19.10;99.90
33269;DHT22;19640;50.944;5.260;2023-06-22T14:43:50;19.20;99.90
33269;DHT22;19640;50.944;5.260;2023-06-22T14:46:17;19.10;99.90
33269;DHT22;19640;50.944;5.260;2023-06-22T14:48:43;19.20;99.90
33269;DHT22;19640;50.944;5.260;2023-06-22T14:51:10;19.20;99.90
33269;DHT22;19640;50.944;5.260;2023-06-22T14:53:36;19.10;99.90
33269;DHT22;19640;50.944;5.260;2023-06-22T14:56:03;19.00;99.90
33269;DHT22;19640;50.944;5.260;2023-06-22T14:58:31;18.90;99.90
33269;DHT22;19640;50.944;5.260;2023-06-22T15:01:02;18.80;99.90
33269;DHT22;19640;50.944;5.260;2023-06-22T15:03:29;18.80;99.90
33269;DHT22;19640;50.944;5.260;2023-06-22T15:05:57;19.00;99.90
33269;DHT22;19640;50.944;5.260;2023-06-22T15:08:23;19.10;99.90
33269;DHT22;19640;50.944;5.260;2023-06-22T15:10:49;19.20;99.90
33269;DHT22;19640;50.944;5.260;2023-06-22T15:13:15;19.20;99.90
33269;DHT22;19640;50.944;5.260;2023-06-22T15:15:43;18.90;99.90
33269;DHT22;19640;50.944;5.260;2023-06-22T15:18:08;18.80;99.90
33269;DHT22;19640;50.944;5.260;2023-06-22T15:20:34;18.70;99.90
33269;DHT22;19640;50.944;5.260;2023-06-22T15:22:59;18.70;99.90
33269;DHT22;19640;50.944;5.260;2023-06-22T15:25:25;18.80;99.90
33269;DHT22;19640;50.944;5.260;2023-06-22T15:27:51;19.00;99.90
33269;DHT22;19640;50.944;5.260;2023-06-22T15:30:16;18.90;99.90
33269;DHT22;19640;50.944;5.260;2023-06-22T15:32:45;18.90;99.90
33269;DHT22;19640;50.944;5.260;2023-06-22T15:35:12;19.00;99.90
33269;DHT22;19640;50.944;5.260;2023-06-22T15:37:37;19.10;99.90